Airfield :







YOU CAN JOIN US ON...

 
LOGIN :

Register | Disclaimer

   EN    FR    IT 

 









Legend :    VFR   Marginal VFR   IFR   Intensive IFR   Very Intensive IFR
Visi :
Ceiling :
>= 8 km
>= 3000ft
5 to 8 km
1000 to 3000 ft
1500m to 5 km
500 to 1000 ft
800 to 1500m
200 to 500 ft
< 800m
< 200 ft
Symbols :   Thunderstorms  Fog  Heavy snow  Heavy precipitations  Wind > 20 kt






- Airport Elevation : 16 ft
- IATA code : FDF


TFFF - Aime Cesaire

CURRENT METAR :
  • 151900Z AUTO 10012KT 070V130 9999 FEW030 31/24 Q1012 BECMG VRB01KT

EXPIRED METARs :
  • 151830Z AUTO 10013KT 9999 FEW033 31/24 Q1012 BECMG VRB01KT
  • 151800Z AUTO 11013KT 9999 FEW034 31/24 Q1013 NOSIG
  • 151730Z AUTO 11014KT 9999 SCT031/// SCT039/// BKN049/// 30/24 Q1013 NOSIG
  • 151700Z AUTO 10012KT 070V150 9999 FEW033/// 31/24 Q1013 NOSIG
  • 151630Z AUTO 10013KT 9999 FEW029 31/23 Q1013 NOSIG

TAF TAF TFFF
Valid from the 15 at 18:00 until the 16 at 18:00 UTC


151600Z 1518/1618 06011KT 9999 SCT030
BECMG 1520/1522 VRB01KT



MET'MAP, your aeronautical weather chart ! - Copyright ORBIFLY December 2007 - Disclaimer

ORBIFLY MET'MAP TEAM :

Programming & Development : Alexandra Zaïnal
Concept & Development : Baudouin d'Aumeries
Co-Development & Prog : Marc-Olivier Méhu
Technical & hardware support : Manuel Goepfert

Contact : metmap@orbifly.com




SOURCES & CREDITS :

   NOAA